Time,TemperatureF,DewpointF,PressureIn,WindDirection,WindDirectionDegrees,WindSpeedMPH,WindSpeedGustMPH,Humidity,HourlyPrecipIn,Conditions,Clouds,dailyrainin,SoftwareType,DateUTC
2013-06-11 00:01:00,61.9,56.3,29.38,NNE,32,5.6,5.6,82,0.00,,SKC,0.00,VWS V14.01,2013-06-11 04:01:00,
2013-06-11 00:06:00,61.9,56.3,29.38,WSW,249,0.0,0.0,82,0.00,,SKC,0.00,VWS V14.01,2013-06-11 04:06:00,
2013-06-11 00:11:00,61.9,56.3,29.38,NNE,33,0.0,0.0,82,0.00,,SKC,0.00,VWS V14.01,2013-06-11 04:11:00,
2013-06-11 00:16:00,61.9,56.3,29.38,NNE,33,0.0,0.0,82,0.00,,SKC,0.00,VWS V14.01,2013-06-11 04:16:00,
2013-06-11 00:21:00,61.9,56.3,29.38,NE,47,0.0,0.0,82,0.00,,SKC,0.00,VWS V14.01,2013-06-11 04:21:00,
2013-06-11 00:26:00,61.9,56.3,29.35,NE,48,0.0,0.0,82,0.00,,SKC,0.00,VWS V14.01,2013-06-11 04:26:00,
2013-06-11 00:31:00,61.9,56.3,29.35,NE,54,0.0,2.2,82,0.00,,SKC,0.00,VWS V14.01,2013-06-11 04:31:00,
2013-06-11 00:36:00,61.9,56.3,29.35,NNE,17,0.0,0.0,82,0.00,,SKC,0.00,VWS V14.01,2013-06-11 04:36:00,
2013-06-11 00:41:00,62.1,56.8,29.35,East,98,4.0,4.0,83,0.04,,SKC,0.04,VWS V14.01,2013-06-11 04:41:00,
2013-06-11 00:46:00,61.9,56.7,29.35,NE,47,5.6,5.6,83,0.04,,SKC,0.04,VWS V14.01,2013-06-11 04:46:00,
2013-06-11 00:51:00,62.1,56.8,29.35,NE,55,0.0,0.0,83,0.04,,SKC,0.04,VWS V14.01,2013-06-11 04:51:00,
2013-06-11 00:56:00,61.9,56.7,29.35,NE,55,0.0,0.0,83,0.08,,SKC,0.08,VWS V14.01,2013-06-11 04:56:00,
2013-06-11 01:01:00,61.9,56.7,29.35,NE,55,0.0,2.2,83,0.08,,SKC,0.08,VWS V14.01,2013-06-11 05:01:00,
2013-06-11 01:06:00,61.9,56.3,29.35,NE,37,5.6,5.6,82,0.08,,SKC,0.08,VWS V14.01,2013-06-11 05:06:00,
2013-06-11 01:11:00,61.9,56.7,29.35,NE,38,0.0,0.0,83,0.08,,SKC,0.08,VWS V14.01,2013-06-11 05:11:00,
2013-06-11 01:16:00,61.9,56.7,29.35,NE,38,0.0,0.0,83,0.08,,SKC,0.08,VWS V14.01,2013-06-11 05:16:00,
2013-06-11 01:21:00,61.9,56.7,29.35,NE,51,0.0,0.0,83,0.08,,SKC,0.08,VWS V14.01,2013-06-11 05:21:00,
2013-06-11 01:26:00,61.9,56.7,29.35,ENE,63,0.0,0.0,83,0.08,,SKC,0.08,VWS V14.01,2013-06-11 05:26:00,
2013-06-11 01:31:00,61.7,56.5,29.35,NE,38,0.0,0.0,83,0.08,,SKC,0.08,VWS V14.01,2013-06-11 05:31:00,
2013-06-11 01:36:00,61.7,56.5,29.35,NE,38,0.0,0.0,83,0.08,,SKC,0.08,VWS V14.01,2013-06-11 05:36:00,
2013-06-11 01:41:00,61.7,56.5,29.35,ENE,77,0.0,0.0,83,0.04,,SKC,0.08,VWS V14.01,2013-06-11 05:41:00,
2013-06-11 01:46:00,61.7,56.5,29.35,ENE,77,0.0,0.0,83,0.04,,SKC,0.08,VWS V14.01,2013-06-11 05:46:00,
2013-06-11 01:51:00,61.7,56.5,29.35,ENE,61,0.0,0.0,83,0.04,,SKC,0.08,VWS V14.01,2013-06-11 05:51:00,
2013-06-11 01:55:00,61.7,56.5,29.32,ENE,58,6.4,6.4,83,0.00,,SKC,0.08,VWS V14.01,2013-06-11 05:55:00,
2013-06-11 02:00:00,61.5,56.3,29.32,NE,47,10.5,10.5,83,0.00,,SKC,0.08,VWS V14.01,2013-06-11 06:00:00,
2013-06-11 02:05:00,61.5,56.3,29.32,ENE,74,0.0,3.6,83,0.00,,SKC,0.08,VWS V14.01,2013-06-11 06:05:00,
2013-06-11 02:10:00,61.5,56.3,29.32,NNW,340,5.6,5.6,83,0.00,,SKC,0.08,VWS V14.01,2013-06-11 06:10:00,
2013-06-11 02:15:00,61.5,56.3,29.32,NE,39,4.8,4.8,83,0.00,,SKC,0.08,VWS V14.01,2013-06-11 06:15:00,
2013-06-11 02:20:00,61.3,56.1,29.32,NE,37,0.0,2.2,83,0.00,,SKC,0.08,VWS V14.01,2013-06-11 06:20:00,
2013-06-11 02:25:00,61.3,56.1,29.29,North,357,0.0,0.0,83,0.00,,SKC,0.08,VWS V14.01,2013-06-11 06:25:00,
2013-06-11 02:30:00,61.3,56.1,29.29,NE,46,0.0,3.1,83,0.00,,SKC,0.08,VWS V14.01,2013-06-11 06:30:00,
2013-06-11 02:35:00,61.3,56.1,29.29,ENE,71,0.0,3.1,83,0.00,,SKC,0.08,VWS V14.01,2013-06-11 06:35:00,
2013-06-11 02:40:00,61.3,56.1,29.29,NNE,27,0.0,0.0,83,0.00,,SKC,0.08,VWS V14.01,2013-06-11 06:40:00,
2013-06-11 02:45:00,61.3,56.1,29.29,ENE,68,5.6,7.6,83,0.00,,SKC,0.08,VWS V14.01,2013-06-11 06:45:00,
2013-06-11 02:50:00,61.3,56.1,29.29,NNE,33,0.0,0.0,83,0.00,,SKC,0.08,VWS V14.01,2013-06-11 06:50:00,
2013-06-11 02:55:00,61.3,56.1,29.29,NNE,33,0.0,0.0,83,0.00,,SKC,0.08,VWS V14.01,2013-06-11 06:55:00,
2013-06-11 03:00:00,61.3,56.1,29.29,NNE,33,0.0,0.0,83,0.00,,SKC,0.08,VWS V14.01,2013-06-11 07:00:00,
2013-06-11 03:05:00,61.3,56.1,29.29,NNE,21,4.0,4.0,83,0.04,,SKC,0.12,VWS V14.01,2013-06-11 07:05:00,
2013-06-11 03:10:00,61.3,56.1,29.29,NNE,25,0.0,0.0,83,0.04,,SKC,0.12,VWS V14.01,2013-06-11 07:10:00,
2013-06-11 03:15:00,61.3,56.1,29.29,East,99,0.0,0.0,83,0.04,,SKC,0.12,VWS V14.01,2013-06-11 07:15:00,
2013-06-11 03:20:00,61.3,56.1,29.29,ESE,102,0.0,0.0,83,0.04,,SKC,0.12,VWS V14.01,2013-06-11 07:20:00,
2013-06-11 03:25:00,61.3,56.1,29.29,ESE,102,0.0,0.0,83,0.04,,SKC,0.12,VWS V14.01,2013-06-11 07:25:00,
2013-06-11 03:30:00,61.5,56.3,29.29,ESE,102,0.0,0.0,83,0.04,,SKC,0.12,VWS V14.01,2013-06-11 07:30:00,
2013-06-11 03:35:00,61.5,56.3,29.29,East,90,0.0,0.0,83,0.04,,SKC,0.12,VWS V14.01,2013-06-11 07:35:00,
2013-06-11 03:40:00,61.5,56.3,29.29,East,90,0.0,0.0,83,0.04,,SKC,0.12,VWS V14.01,2013-06-11 07:40:00,
2013-06-11 03:45:00,61.5,56.3,29.29,East,90,0.0,0.0,83,0.04,,SKC,0.12,VWS V14.01,2013-06-11 07:45:00,
2013-06-11 03:50:00,61.5,56.3,29.29,East,90,0.0,0.0,83,0.04,,SKC,0.12,VWS V14.01,2013-06-11 07:50:00,
2013-06-11 03:55:00,61.5,56.3,29.29,East,90,0.0,0.0,83,0.04,,SKC,0.12,VWS V14.01,2013-06-11 07:55:00,
2013-06-11 04:00:00,61.5,56.3,29.29,East,90,0.0,0.0,83,0.04,,SKC,0.12,VWS V14.01,2013-06-11 08:00:00,
2013-06-11 04:05:00,61.5,56.3,29.29,East,90,0.0,0.0,83,0.04,,SKC,0.12,VWS V14.01,2013-06-11 08:05:00,
2013-06-11 04:10:00,61.5,56.3,29.29,NE,38,0.0,0.0,83,0.00,,SKC,0.12,VWS V14.01,2013-06-11 08:10:00,
2013-06-11 04:15:00,61.5,56.3,29.29,NE,43,0.0,2.2,83,0.00,,SKC,0.12,VWS V14.01,2013-06-11 08:15:00,
2013-06-11 04:20:00,61.7,56.5,29.29,NE,43,0.0,0.0,83,0.00,,SKC,0.12,VWS V14.01,2013-06-11 08:20:00,
2013-06-11 04:25:00,61.7,56.8,29.29,NE,43,0.0,0.0,84,0.00,,SKC,0.12,VWS V14.01,2013-06-11 08:25:00,
2013-06-11 04:30:00,61.7,56.8,29.29,NE,43,0.0,0.0,84,0.00,,SKC,0.12,VWS V14.01,2013-06-11 08:30:00,
2013-06-11 04:35:00,61.9,57.0,29.29,NE,43,0.0,0.0,84,0.00,,SKC,0.12,VWS V14.01,2013-06-11 08:35:00,
2013-06-11 04:40:00,61.9,57.0,29.29,NE,43,0.0,0.0,84,0.00,,SKC,0.12,VWS V14.01,2013-06-11 08:40:00,
2013-06-11 04:45:00,61.9,57.0,29.29,NE,43,0.0,0.0,84,0.00,,SKC,0.12,VWS V14.01,2013-06-11 08:45:00,
2013-06-11 04:50:00,61.9,57.0,29.29,NE,43,0.0,0.0,84,0.00,,SKC,0.12,VWS V14.01,2013-06-11 08:50:00,
2013-06-11 04:55:00,61.9,57.0,29.29,NE,43,0.0,0.0,84,0.00,,SKC,0.12,VWS V14.01,2013-06-11 08:55:00,
2013-06-11 05:00:00,61.9,56.7,29.29,NE,43,0.0,0.0,83,0.00,,SKC,0.12,VWS V14.01,2013-06-11 09:00:00,
2013-06-11 05:05:00,61.9,56.7,29.29,NE,43,0.0,0.0,83,0.00,,SKC,0.12,VWS V14.01,2013-06-11 09:05:00,
2013-06-11 05:10:00,61.9,56.7,29.29,NE,43,0.0,0.0,83,0.00,,SKC,0.12,VWS V14.01,2013-06-11 09:10:00,
2013-06-11 05:15:00,61.9,56.7,29.29,NE,43,0.0,0.0,83,0.00,,SKC,0.12,VWS V14.01,2013-06-11 09:15:00,
2013-06-11 05:20:00,61.9,56.7,29.29,NE,43,0.0,0.0,83,0.00,,SKC,0.12,VWS V14.01,2013-06-11 09:20:00,
2013-06-11 05:25:00,61.9,56.7,29.29,NE,43,0.0,0.0,83,0.00,,SKC,0.12,VWS V14.01,2013-06-11 09:25:00,
2013-06-11 05:30:00,61.9,56.7,29.29,NE,43,0.0,0.0,83,0.00,,SKC,0.12,VWS V14.01,2013-06-11 09:30:00,
2013-06-11 05:35:00,61.9,56.7,29.29,NE,43,0.0,0.0,83,0.00,,SKC,0.12,VWS V14.01,2013-06-11 09:35:00,
2013-06-11 05:40:00,61.9,57.0,29.29,NE,43,0.0,0.0,84,0.00,,SKC,0.12,VWS V14.01,2013-06-11 09:40:00,
2013-06-11 05:45:00,62.1,57.2,29.29,NE,43,0.0,0.0,84,0.00,,SKC,0.12,VWS V14.01,2013-06-11 09:45:00,
2013-06-11 05:50:00,62.1,57.2,29.29,NE,43,0.0,0.0,84,0.00,,SKC,0.12,VWS V14.01,2013-06-11 09:50:00,
2013-06-11 05:55:00,62.1,57.2,29.29,NE,43,0.0,0.0,84,0.00,,SKC,0.12,VWS V14.01,2013-06-11 09:55:00,
2013-06-11 06:00:00,62.1,57.2,29.29,NE,43,0.0,0.0,84,0.00,,SKC,0.12,VWS V14.01,2013-06-11 10:00:00,
2013-06-11 06:05:00,62.2,57.3,29.29,NE,43,0.0,0.0,84,0.00,,SKC,0.12,VWS V14.01,2013-06-11 10:05:00,
2013-06-11 06:10:00,62.2,57.3,29.29,NE,43,0.0,0.0,84,0.00,,SKC,0.12,VWS V14.01,2013-06-11 10:10:00,
2013-06-11 06:15:00,62.2,57.3,29.29,NE,43,0.0,0.0,84,0.00,,SKC,0.12,VWS V14.01,2013-06-11 10:15:00,
2013-06-11 06:20:00,62.2,57.3,29.29,NE,43,0.0,0.0,84,0.00,,SKC,0.12,VWS V14.01,2013-06-11 10:20:00,
2013-06-11 06:25:00,62.4,57.5,29.29,NE,43,0.0,0.0,84,0.00,,SKC,0.12,VWS V14.01,2013-06-11 10:25:00,
2013-06-11 06:30:00,62.4,57.5,29.29,NE,43,0.0,0.0,84,0.00,,SKC,0.12,VWS V14.01,2013-06-11 10:30:00,
2013-06-11 06:35:00,62.6,57.7,29.29,NE,43,0.0,0.0,84,0.00,,SKC,0.12,VWS V14.01,2013-06-11 10:35:00,
2013-06-11 06:40:00,62.8,57.9,29.29,NE,43,0.0,0.0,84,0.00,,SKC,0.12,VWS V14.01,2013-06-11 10:40:00,
2013-06-11 06:45:00,63.0,58.1,29.29,NE,43,0.0,0.0,84,0.00,,SKC,0.12,VWS V14.01,2013-06-11 10:45:00,
2013-06-11 06:50:00,63.1,58.2,29.29,NE,43,0.0,0.0,84,0.00,,SKC,0.12,VWS V14.01,2013-06-11 10:50:00,
2013-06-11 06:55:00,63.3,58.4,29.29,NE,43,0.0,0.0,84,0.00,,SKC,0.12,VWS V14.01,2013-06-11 10:55:00,
2013-06-11 07:00:00,63.5,58.6,29.29,NE,43,0.0,0.0,84,0.00,,SKC,0.12,VWS V14.01,2013-06-11 11:00:00,
2013-06-11 07:05:00,63.7,58.8,29.29,NE,43,0.0,0.0,84,0.00,,SKC,0.12,VWS V14.01,2013-06-11 11:05:00,
2013-06-11 07:10:00,63.7,58.8,29.29,NE,43,0.0,0.0,84,0.00,,SKC,0.12,VWS V14.01,2013-06-11 11:10:00,
2013-06-11 07:15:00,63.9,58.9,29.29,NE,43,0.0,0.0,84,0.00,,SKC,0.12,VWS V14.01,2013-06-11 11:15:00,
2013-06-11 07:20:00,63.9,58.9,29.29,NE,43,0.0,0.0,84,0.00,,SKC,0.12,VWS V14.01,2013-06-11 11:20:00,
2013-06-11 07:25:00,64.0,59.1,29.29,NE,43,0.0,0.0,84,0.00,,SKC,0.12,VWS V14.01,2013-06-11 11:25:00,
2013-06-11 07:30:00,64.4,59.5,29.29,NE,43,0.0,0.0,84,0.00,,SKC,0.12,VWS V14.01,2013-06-11 11:30:00,
2013-06-11 07:35:00,64.6,59.6,29.29,NE,43,0.0,0.0,84,0.00,,SKC,0.12,VWS V14.01,2013-06-11 11:35:00,
2013-06-11 07:40:00,64.8,59.8,29.29,NE,43,0.0,0.0,84,0.00,,SKC,0.12,VWS V14.01,2013-06-11 11:40:00,
2013-06-11 07:45:00,64.9,60.0,29.29,NE,43,0.0,0.0,84,0.00,,SKC,0.12,VWS V14.01,2013-06-11 11:45:00,
2013-06-11 07:50:00,65.1,60.2,29.29,NE,43,0.0,0.0,84,0.00,,SKC,0.12,VWS V14.01,2013-06-11 11:50:00,
2013-06-11 07:55:00,65.3,60.7,29.29,NE,43,0.0,0.0,85,0.00,,SKC,0.12,VWS V14.01,2013-06-11 11:55:00,
2013-06-11 07:59:00,65.5,60.9,29.29,NE,43,0.0,0.0,85,0.00,,SKC,0.12,VWS V14.01,2013-06-11 11:59:00,
2013-06-11 08:04:00,65.7,61.0,29.29,NE,43,0.0,0.0,85,0.00,,SKC,0.12,VWS V14.01,2013-06-11 12:04:00,
2013-06-11 08:09:00,65.8,61.2,29.29,NE,43,0.0,0.0,85,0.00,,SKC,0.12,VWS V14.01,2013-06-11 12:09:00,
2013-06-11 08:14:00,66.2,61.6,29.29,NE,43,0.0,0.0,85,0.00,,SKC,0.12,VWS V14.01,2013-06-11 12:14:00,
2013-06-11 08:19:00,66.4,61.7,29.29,NE,43,0.0,0.0,85,0.00,,SKC,0.12,VWS V14.01,2013-06-11 12:19:00,
2013-06-11 08:24:00,66.6,61.9,29.29,NE,43,0.0,0.0,85,0.00,,SKC,0.12,VWS V14.01,2013-06-11 12:24:00,
2013-06-11 08:29:00,67.1,62.8,29.29,NE,43,0.0,0.0,86,0.00,,SKC,0.12,VWS V14.01,2013-06-11 12:29:00,
2013-06-11 08:34:00,67.5,63.1,29.29,NE,43,0.0,0.0,86,0.00,,SKC,0.12,VWS V14.01,2013-06-11 12:34:00,
2013-06-11 08:39:00,68.0,63.7,29.29,NE,43,0.0,0.0,86,0.00,,SKC,0.12,VWS V14.01,2013-06-11 12:39:00,
2013-06-11 08:44:00,68.5,64.5,29.29,ESE,117,0.0,2.2,87,0.00,,SKC,0.12,VWS V14.01,2013-06-11 12:44:00,
2013-06-11 08:49:00,68.9,64.9,29.29,SE,129,0.0,0.0,87,0.00,,SKC,0.12,VWS V14.01,2013-06-11 12:49:00,
2013-06-11 08:54:00,69.1,65.1,29.29,SE,129,0.0,0.0,87,0.00,,SKC,0.12,VWS V14.01,2013-06-11 12:54:00,
2013-06-11 08:59:00,69.4,65.4,29.29,SE,129,0.0,0.0,87,0.00,,SKC,0.12,VWS V14.01,2013-06-11 12:59:00,
2013-06-11 09:04:00,69.8,66.1,29.29,SE,129,0.0,0.0,88,0.00,,SKC,0.12,VWS V14.01,2013-06-11 13:04:00,
2013-06-11 09:09:00,70.2,66.4,29.26,SE,129,0.0,0.0,88,0.00,,SKC,0.12,VWS V14.01,2013-06-11 13:09:00,
2013-06-11 09:14:00,70.7,67.3,29.26,SE,140,0.0,0.0,89,0.00,,SKC,0.12,VWS V14.01,2013-06-11 13:14:00,
2013-06-11 09:19:00,71.1,67.7,29.26,SE,140,0.0,0.0,89,0.00,,SKC,0.12,VWS V14.01,2013-06-11 13:19:00,
2013-06-11 09:24:00,71.8,68.0,29.26,SE,140,0.0,0.0,88,0.00,,SKC,0.12,VWS V14.01,2013-06-11 13:24:00,
2013-06-11 09:29:00,72.0,65.5,29.26,SSE,149,0.0,0.0,80,0.00,,SKC,0.12,VWS V14.01,2013-06-11 13:29:00,
2013-06-11 09:34:00,71.2,54.8,29.26,ESE,122,4.0,4.0,56,0.00,,SKC,0.12,VWS V14.01,2013-06-11 13:34:00,
2013-06-11 09:39:00,71.8,54.8,29.26,SE,125,0.0,0.0,55,0.00,,SKC,0.12,VWS V14.01,2013-06-11 13:39:00,
2013-06-11 09:44:00,72.5,54.9,29.26,ENE,70,0.0,0.0,54,0.00,,SKC,0.12,VWS V14.01,2013-06-11 13:44:00,
2013-06-11 09:49:00,72.9,52.6,29.26,ESE,106,7.2,7.2,49,0.00,,SKC,0.12,VWS V14.01,2013-06-11 13:49:00,
2013-06-11 09:54:00,73.0,48.6,29.26,ESE,104,4.0,4.0,42,0.00,,SKC,0.12,VWS V14.01,2013-06-11 13:54:00,
2013-06-11 09:59:00,73.4,48.9,29.26,ESE,113,0.0,0.0,42,0.00,,SKC,0.12,VWS V14.01,2013-06-11 13:59:00,
2013-06-11 10:04:00,73.4,48.3,29.26,NNW,328,0.0,0.0,41,0.00,,SKC,0.12,VWS V14.01,2013-06-11 14:04:00,
2013-06-11 10:09:00,73.4,47.6,29.26,ESE,114,0.0,0.0,40,0.00,,SKC,0.12,VWS V14.01,2013-06-11 14:09:00,
2013-06-11 10:14:00,73.4,48.3,29.26,East,82,0.0,4.0,41,0.00,,SKC,0.12,VWS V14.01,2013-06-11 14:14:00,
2013-06-11 10:19:00,73.4,44.8,29.26,East,97,6.4,6.4,36,0.00,,SKC,0.12,VWS V14.01,2013-06-11 14:19:00,
2013-06-11 10:24:00,74.1,46.2,29.26,ESE,116,0.0,0.0,37,0.00,,SKC,0.12,VWS V14.01,2013-06-11 14:24:00,
2013-06-11 10:29:00,74.7,47.4,29.26,ESE,114,0.0,0.0,38,0.00,,SKC,0.12,VWS V14.01,2013-06-11 14:29:00,
2013-06-11 10:34:00,75.2,47.2,29.26,NNW,332,0.0,0.0,37,0.00,,SKC,0.12,VWS V14.01,2013-06-11 14:34:00,
2013-06-11 10:39:00,75.6,45.2,29.26,ESE,108,0.0,0.0,34,0.00,,SKC,0.12,VWS V14.01,2013-06-11 14:39:00,
2013-06-11 10:44:00,76.3,45.9,29.26,SE,131,0.0,0.0,34,0.00,,SKC,0.12,VWS V14.01,2013-06-11 14:44:00,
2013-06-11 10:49:00,76.5,43.6,29.26,SSE,162,7.2,7.2,31,0.00,,SKC,0.12,VWS V14.01,2013-06-11 14:49:00,
2013-06-11 10:54:00,75.9,43.1,29.26,SW,224,0.0,0.0,31,0.00,,SKC,0.12,VWS V14.01,2013-06-11 14:54:00,
2013-06-11 10:59:00,75.7,44.6,29.26,East,97,4.8,4.8,33,0.00,,SKC,0.12,VWS V14.01,2013-06-11 14:59:00,
2013-06-11 11:04:00,75.6,42.8,29.26,SE,141,4.0,4.0,31,0.00,,SKC,0.12,VWS V14.01,2013-06-11 15:04:00,
2013-06-11 11:09:00,75.6,43.7,29.26,SE,146,4.0,4.0,32,0.00,,SKC,0.12,VWS V14.01,2013-06-11 15:09:00,
2013-06-11 11:14:00,75.9,44.0,29.26,WSW,238,11.3,11.3,32,0.00,,SKC,0.12,VWS V14.01,2013-06-11 15:14:00,
2013-06-11 11:19:00,76.3,44.3,29.26,ESE,123,5.6,5.6,32,0.00,,SKC,0.12,VWS V14.01,2013-06-11 15:19:00,
2013-06-11 11:24:00,76.8,43.9,29.26,SSE,168,5.6,5.6,31,0.00,,SKC,0.12,VWS V14.01,2013-06-11 15:24:00,
2013-06-11 11:29:00,77.2,43.4,29.26,North,357,0.0,0.0,30,0.00,,SKC,0.12,VWS V14.01,2013-06-11 15:29:00,
2013-06-11 11:34:00,77.4,44.4,29.26,SSE,164,4.8,4.8,31,0.00,,SKC,0.12,VWS V14.01,2013-06-11 15:34:00,
2013-06-11 11:39:00,77.2,43.4,29.26,East,88,0.0,0.0,30,0.00,,SKC,0.12,VWS V14.01,2013-06-11 15:39:00,
2013-06-11 11:44:00,77.0,44.1,29.26,SSE,163,0.0,0.0,31,0.00,,SKC,0.12,VWS V14.01,2013-06-11 15:44:00,
2013-06-11 11:49:00,77.0,43.2,29.26,South,175,0.0,0.0,30,0.00,,SKC,0.12,VWS V14.01,2013-06-11 15:49:00,
2013-06-11 11:54:00,76.6,43.8,29.26,SE,126,0.0,0.0,31,0.00,,SKC,0.12,VWS V14.01,2013-06-11 15:54:00,
2013-06-11 11:59:00,76.5,43.6,29.26,SSW,208,0.0,2.7,31,0.00,,SKC,0.12,VWS V14.01,2013-06-11 15:59:00,
2013-06-11 12:04:00,76.5,43.6,29.26,SSE,160,4.8,4.8,31,0.00,,SKC,0.12,VWS V14.01,2013-06-11 16:04:00,
2013-06-11 12:09:00,76.8,43.1,29.23,South,188,4.0,4.0,30,0.00,,SKC,0.12,VWS V14.01,2013-06-11 16:09:00,
2013-06-11 12:14:00,77.2,43.4,29.23,WNW,283,5.6,5.6,30,0.00,,SKC,0.12,VWS V14.01,2013-06-11 16:14:00,
2013-06-11 12:19:00,77.5,43.7,29.23,SSE,147,4.8,4.8,30,0.00,,SKC,0.12,VWS V14.01,2013-06-11 16:19:00,
2013-06-11 12:24:00,77.7,42.0,29.23,South,179,0.0,0.0,28,0.00,,SKC,0.12,VWS V14.01,2013-06-11 16:24:00,
2013-06-11 12:29:00,77.4,41.7,29.23,SSW,200,0.0,0.0,28,0.00,,SKC,0.12,VWS V14.01,2013-06-11 16:29:00,
2013-06-11 12:34:00,77.2,42.5,29.23,SW,214,4.0,4.0,29,0.00,,SKC,0.12,VWS V14.01,2013-06-11 16:34:00,
2013-06-11 12:39:00,77.5,42.8,29.23,SSE,162,4.0,4.0,29,0.00,,SKC,0.12,VWS V14.01,2013-06-11 16:39:00,
2013-06-11 12:44:00,78.1,40.4,29.23,SSE,168,4.8,4.8,26,0.00,,SKC,0.12,VWS V14.01,2013-06-11 16:44:00,
2013-06-11 12:49:00,78.4,40.8,29.23,SSE,164,4.8,4.8,26,0.00,,SKC,0.12,VWS V14.01,2013-06-11 16:49:00,
2013-06-11 12:54:00,78.6,38.8,29.23,SSW,196,4.0,4.0,24,0.00,,SKC,0.12,VWS V14.01,2013-06-11 16:54:00,
2013-06-11 12:59:00,78.6,40.9,29.23,South,186,6.4,6.4,26,0.00,,SKC,0.12,VWS V14.01,2013-06-11 16:59:00,
2013-06-11 13:04:00,78.6,40.9,29.23,West,261,0.0,3.6,26,0.00,,SKC,0.12,VWS V14.01,2013-06-11 17:04:00,
2013-06-11 13:09:00,78.6,39.9,29.21,ESE,109,4.8,4.8,25,0.00,,SKC,0.12,VWS V14.01,2013-06-11 17:09:00,
2013-06-11 13:14:00,78.4,39.7,29.21,West,266,0.0,0.0,25,0.00,,SKC,0.12,VWS V14.01,2013-06-11 17:14:00,
2013-06-11 13:19:00,78.4,39.7,29.21,SSE,160,4.8,4.8,25,0.00,,SKC,0.12,VWS V14.01,2013-06-11 17:19:00,
2013-06-11 13:24:00,78.3,40.6,29.21,SW,218,0.0,2.7,26,0.00,,SKC,0.12,VWS V14.01,2013-06-11 17:24:00,
2013-06-11 13:29:00,78.1,41.4,29.21,SE,136,0.0,0.0,27,0.00,,SKC,0.12,VWS V14.01,2013-06-11 17:29:00,
2013-06-11 13:34:00,77.9,40.3,29.21,SSW,193,4.0,4.0,26,0.00,,SKC,0.12,VWS V14.01,2013-06-11 17:34:00,
2013-06-11 13:39:00,77.9,41.3,29.21,SSE,157,0.0,4.0,27,0.00,,SKC,0.12,VWS V14.01,2013-06-11 17:39:00,
2013-06-11 13:44:00,78.3,40.6,29.21,ESE,109,4.8,4.9,26,0.00,,SKC,0.12,VWS V14.01,2013-06-11 17:44:00,
2013-06-11 13:49:00,78.1,40.4,29.21,ESE,121,0.0,0.0,26,0.00,,SKC,0.12,VWS V14.01,2013-06-11 17:49:00,
2013-06-11 13:54:00,77.9,43.1,29.21,South,180,4.0,4.0,29,0.00,,SKC,0.12,VWS V14.01,2013-06-11 17:54:00,
2013-06-11 13:59:00,77.7,43.0,29.21,South,171,0.0,3.1,29,0.00,,SKC,0.12,VWS V14.01,2013-06-11 17:59:00,
2013-06-11 14:04:00,77.4,40.8,29.21,SW,229,4.8,4.8,27,0.00,,SKC,0.12,VWS V14.01,2013-06-11 18:04:00,
2013-06-11 14:08:00,77.0,42.3,29.21,South,171,0.0,0.0,29,0.00,,SKC,0.12,VWS V14.01,2013-06-11 18:08:00,
2013-06-11 14:13:00,76.3,42.6,29.21,South,173,0.0,0.0,30,0.00,,SKC,0.12,VWS V14.01,2013-06-11 18:13:00,
2013-06-11 14:18:00,75.7,43.8,29.21,ESE,110,0.0,3.6,32,0.00,,SKC,0.12,VWS V14.01,2013-06-11 18:18:00,
2013-06-11 14:23:00,75.2,44.2,29.21,ESE,111,0.0,4.0,33,0.00,,SKC,0.12,VWS V14.01,2013-06-11 18:23:00,
2013-06-11 14:28:00,75.2,44.2,29.21,NW,306,6.4,6.4,33,0.00,,SKC,0.12,VWS V14.01,2013-06-11 18:28:00,
2013-06-11 14:33:00,75.2,43.3,29.21,ESE,108,0.0,0.0,32,0.00,,SKC,0.12,VWS V14.01,2013-06-11 18:33:00,
2013-06-11 14:38:00,75.0,44.0,29.21,ESE,110,4.8,4.8,33,0.00,,SKC,0.12,VWS V14.01,2013-06-11 18:38:00,
2013-06-11 14:43:00,74.7,43.7,29.21,ESE,118,0.0,2.2,33,0.00,,SKC,0.12,VWS V14.01,2013-06-11 18:43:00,
2013-06-11 14:48:00,74.5,43.5,29.21,ESE,117,6.4,6.4,33,0.00,,SKC,0.12,VWS V14.01,2013-06-11 18:48:00,
2013-06-11 14:53:00,74.7,43.7,29.21,ESE,115,4.0,4.0,33,0.00,,SKC,0.12,VWS V14.01,2013-06-11 18:53:00,
2013-06-11 14:58:00,74.8,43.8,29.21,SW,219,0.0,3.6,33,0.00,,SKC,0.12,VWS V14.01,2013-06-11 18:58:00,
2013-06-11 15:03:00,75.2,44.2,29.21,East,85,6.4,6.4,33,0.00,,SKC,0.12,VWS V14.01,2013-06-11 19:03:00,
2013-06-11 15:08:00,75.4,43.5,29.21,East,99,0.0,0.0,32,0.00,,SKC,0.12,VWS V14.01,2013-06-11 19:08:00,
2013-06-11 15:13:00,75.7,43.8,29.21,SSE,164,4.8,4.8,32,0.00,,SKC,0.12,VWS V14.01,2013-06-11 19:13:00,
2013-06-11 15:18:00,75.7,43.8,29.21,NE,49,0.0,0.0,32,0.00,,SKC,0.12,VWS V14.01,2013-06-11 19:18:00,
2013-06-11 15:23:00,75.7,43.8,29.21,South,170,4.8,4.8,32,0.00,,SKC,0.12,VWS V14.01,2013-06-11 19:23:00,
2013-06-11 15:28:00,75.4,43.5,29.21,East,99,0.0,2.2,32,0.00,,SKC,0.12,VWS V14.01,2013-06-11 19:28:00,
2013-06-11 15:33:00,75.2,42.5,29.21,NW,304,4.8,4.8,31,0.00,,SKC,0.12,VWS V14.01,2013-06-11 19:33:00,
2013-06-11 15:38:00,75.4,42.7,29.21,NNE,25,4.8,4.8,31,0.00,,SKC,0.12,VWS V14.01,2013-06-11 19:38:00,
2013-06-11 15:43:00,75.9,44.0,29.18,SSE,167,0.0,0.0,32,0.00,,SKC,0.12,VWS V14.01,2013-06-11 19:43:00,
2013-06-11 15:48:00,76.3,44.3,29.18,WNW,285,5.6,5.6,32,0.00,,SKC,0.12,VWS V14.01,2013-06-11 19:48:00,
2013-06-11 15:53:00,76.5,43.6,29.18,ESE,109,0.0,0.0,31,0.00,,SKC,0.12,VWS V14.01,2013-06-11 19:53:00,
2013-06-11 15:58:00,76.5,43.6,29.18,SSE,159,0.0,0.0,31,0.00,,SKC,0.12,VWS V14.01,2013-06-11 19:58:00,
2013-06-11 16:03:00,76.5,43.6,29.18,East,98,8.9,8.9,31,0.00,,SKC,0.12,VWS V14.01,2013-06-11 20:03:00,
2013-06-11 16:08:00,76.3,43.5,29.18,SSE,164,4.8,4.8,31,0.00,,SKC,0.12,VWS V14.01,2013-06-11 20:08:00,
2013-06-11 16:13:00,76.3,42.6,29.18,SE,126,4.8,4.8,30,0.00,,SKC,0.12,VWS V14.01,2013-06-11 20:13:00,
2013-06-11 16:18:00,76.3,43.5,29.18,East,97,4.8,4.8,31,0.00,,SKC,0.12,VWS V14.01,2013-06-11 20:18:00,
2013-06-11 16:23:00,76.8,43.9,29.18,SE,137,4.0,4.0,31,0.00,,SKC,0.12,VWS V14.01,2013-06-11 20:23:00,
2013-06-11 16:28:00,77.7,43.8,29.18,ESE,117,5.6,5.6,30,0.00,,SKC,0.12,VWS V14.01,2013-06-11 20:28:00,
2013-06-11 16:33:00,78.1,42.4,29.18,East,101,7.2,7.2,28,0.00,,SKC,0.12,VWS V14.01,2013-06-11 20:33:00,
2013-06-11 16:38:00,78.1,43.3,29.18,SE,129,4.8,4.8,29,0.00,,SKC,0.12,VWS V14.01,2013-06-11 20:38:00,
2013-06-11 16:43:00,78.1,42.4,29.18,South,180,6.4,6.4,28,0.00,,SKC,0.12,VWS V14.01,2013-06-11 20:43:00,
2013-06-11 16:48:00,77.9,43.1,29.18,ESE,113,7.2,7.2,29,0.00,,SKC,0.12,VWS V14.01,2013-06-11 20:48:00,
2013-06-11 16:53:00,77.7,42.0,29.18,SW,230,5.6,5.6,28,0.00,,SKC,0.12,VWS V14.01,2013-06-11 20:53:00,
2013-06-11 16:58:00,77.5,42.8,29.18,ESE,111,7.2,7.2,29,0.00,,SKC,0.12,VWS V14.01,2013-06-11 20:58:00,
2013-06-11 17:03:00,77.2,43.4,29.18,ESE,112,6.4,6.4,30,0.00,,SKC,0.12,VWS V14.01,2013-06-11 21:03:00,
2013-06-11 17:08:00,76.8,43.9,29.18,East,93,0.0,2.2,31,0.00,,SKC,0.12,VWS V14.01,2013-06-11 21:08:00,
2013-06-11 17:13:00,77.2,43.4,29.18,SE,136,0.0,0.0,30,0.00,,SKC,0.12,VWS V14.01,2013-06-11 21:13:00,
2013-06-11 17:18:00,77.0,42.3,29.18,ENE,61,4.8,4.8,29,0.00,,SKC,0.12,VWS V14.01,2013-06-11 21:18:00,
2013-06-11 17:23:00,76.8,42.2,29.18,SE,134,7.2,7.2,29,0.00,,SKC,0.12,VWS V14.01,2013-06-11 21:23:00,
2013-06-11 17:28:00,76.6,42.9,29.18,ESE,103,0.0,3.1,30,0.00,,SKC,0.12,VWS V14.01,2013-06-11 21:28:00,
2013-06-11 17:33:00,76.5,42.8,29.18,NNW,343,4.0,4.0,30,0.00,,SKC,0.12,VWS V14.01,2013-06-11 21:33:00,
2013-06-11 17:38:00,76.1,44.1,29.18,East,99,5.6,5.6,32,0.00,,SKC,0.12,VWS V14.01,2013-06-11 21:38:00,
2013-06-11 17:43:00,73.8,45.9,29.18,NE,52,6.4,6.4,37,0.08,,SKC,0.20,VWS V14.01,2013-06-11 21:43:00,
2013-06-11 17:48:00,73.2,46.1,29.18,ENE,74,0.0,0.0,38,0.08,,SKC,0.20,VWS V14.01,2013-06-11 21:48:00,
2013-06-11 17:53:00,71.4,47.2,29.18,SE,146,0.0,2.2,42,0.08,,SKC,0.20,VWS V14.01,2013-06-11 21:53:00,
2013-06-11 17:58:00,70.7,49.5,29.18,ESE,111,0.0,0.0,47,0.08,,SKC,0.20,VWS V14.01,2013-06-11 21:58:00,
2013-06-11 18:03:00,70.2,49.6,29.18,NNE,31,0.0,0.0,48,0.08,,SKC,0.20,VWS V14.01,2013-06-11 22:03:00,
2013-06-11 18:08:00,70.0,49.4,29.18,NNE,31,0.0,0.0,48,0.08,,SKC,0.20,VWS V14.01,2013-06-11 22:08:00,
2013-06-11 18:13:00,70.0,51.6,29.21,East,92,0.0,0.0,52,0.08,,SKC,0.20,VWS V14.01,2013-06-11 22:13:00,
2013-06-11 18:18:00,69.6,51.8,29.21,ESE,109,0.0,0.0,53,0.08,,SKC,0.20,VWS V14.01,2013-06-11 22:18:00,
2013-06-11 18:23:00,69.6,51.8,29.21,ESE,122,0.0,0.0,53,0.08,,SKC,0.20,VWS V14.01,2013-06-11 22:23:00,
2013-06-11 18:28:00,69.6,51.8,29.18,ESE,102,0.0,0.0,53,0.08,,SKC,0.20,VWS V14.01,2013-06-11 22:28:00,
2013-06-11 18:33:00,70.0,51.6,29.18,ESE,102,0.0,0.0,52,0.08,,SKC,0.20,VWS V14.01,2013-06-11 22:33:00,
2013-06-11 18:38:00,70.0,51.6,29.18,ESE,102,0.0,0.0,52,0.08,,SKC,0.20,VWS V14.01,2013-06-11 22:38:00,
2013-06-11 18:43:00,70.0,51.6,29.18,ESE,102,0.0,0.0,52,0.00,,SKC,0.20,VWS V14.01,2013-06-11 22:43:00,
2013-06-11 18:48:00,70.0,51.0,29.18,ESE,102,0.0,0.0,51,0.00,,SKC,0.20,VWS V14.01,2013-06-11 22:48:00,
2013-06-11 18:53:00,70.0,51.6,29.18,ESE,102,0.0,0.0,52,0.00,,SKC,0.20,VWS V14.01,2013-06-11 22:53:00,
2013-06-11 18:58:00,69.8,51.4,29.21,ESE,102,0.0,0.0,52,0.00,,SKC,0.20,VWS V14.01,2013-06-11 22:58:00,
2013-06-11 19:03:00,69.8,51.4,29.21,ESE,102,0.0,0.0,52,0.00,,SKC,0.20,VWS V14.01,2013-06-11 23:03:00,
2013-06-11 19:08:00,69.8,51.4,29.21,ESE,102,0.0,0.0,52,0.00,,SKC,0.20,VWS V14.01,2013-06-11 23:08:00,
2013-06-11 19:13:00,70.0,51.6,29.21,ESE,102,0.0,0.0,52,0.00,,SKC,0.20,VWS V14.01,2013-06-11 23:13:00,
2013-06-11 19:18:00,70.0,51.0,29.21,ESE,102,0.0,0.0,51,0.00,,SKC,0.20,VWS V14.01,2013-06-11 23:18:00,
2013-06-11 19:23:00,70.0,50.5,29.21,ESE,102,0.0,0.0,50,0.00,,SKC,0.20,VWS V14.01,2013-06-11 23:23:00,
2013-06-11 19:28:00,70.0,49.4,29.21,East,92,0.0,0.0,48,0.00,,SKC,0.20,VWS V14.01,2013-06-11 23:28:00,
2013-06-11 19:33:00,70.2,49.6,29.21,East,92,0.0,0.0,48,0.00,,SKC,0.20,VWS V14.01,2013-06-11 23:33:00,
2013-06-11 19:38:00,70.0,48.8,29.21,WNW,287,4.0,4.0,47,0.00,,SKC,0.20,VWS V14.01,2013-06-11 23:38:00,
2013-06-11 19:43:00,70.0,48.8,29.21,WNW,287,0.0,0.0,47,0.00,,SKC,0.20,VWS V14.01,2013-06-11 23:43:00,
2013-06-11 19:48:00,70.2,49.0,29.21,WNW,287,0.0,0.0,47,0.00,,SKC,0.20,VWS V14.01,2013-06-11 23:48:00,
2013-06-11 19:53:00,70.0,48.8,29.21,WNW,287,0.0,0.0,47,0.00,,SKC,0.20,VWS V14.01,2013-06-11 23:53:00,
2013-06-11 19:58:00,70.0,48.8,29.21,WNW,287,0.0,0.0,47,0.00,,SKC,0.20,VWS V14.01,2013-06-11 23:58:00,
2013-06-11 20:03:00,69.8,48.7,29.21,WNW,287,0.0,0.0,47,0.00,,SKC,0.20,VWS V14.01,2013-06-12 00:03:00,
2013-06-11 20:08:00,69.6,48.5,29.21,WNW,287,0.0,0.0,47,0.00,,SKC,0.20,VWS V14.01,2013-06-12 00:08:00,
2013-06-11 20:12:00,69.4,48.3,29.21,WNW,287,0.0,0.0,47,0.00,,SKC,0.20,VWS V14.01,2013-06-12 00:12:00,
2013-06-11 20:17:00,69.4,48.9,29.21,WNW,287,0.0,3.1,48,0.00,,SKC,0.20,VWS V14.01,2013-06-12 00:17:00,
2013-06-11 20:22:00,69.3,46.4,29.21,East,99,0.0,3.1,44,0.00,,SKC,0.20,VWS V14.01,2013-06-12 00:22:00,
2013-06-11 20:27:00,69.3,46.4,29.21,ESE,109,5.6,5.6,44,0.00,,SKC,0.20,VWS V14.01,2013-06-12 00:27:00,
2013-06-11 20:32:00,69.1,45.7,29.21,ESE,109,0.0,0.0,43,0.00,,SKC,0.20,VWS V14.01,2013-06-12 00:32:00,
2013-06-11 20:37:00,69.1,45.0,29.21,ESE,109,0.0,0.0,42,0.00,,SKC,0.20,VWS V14.01,2013-06-12 00:37:00,
2013-06-11 20:42:00,69.1,44.4,29.21,ESE,109,0.0,0.0,41,0.00,,SKC,0.20,VWS V14.01,2013-06-12 00:42:00,
2013-06-11 20:47:00,68.9,44.2,29.21,ESE,109,0.0,0.0,41,0.00,,SKC,0.20,VWS V14.01,2013-06-12 00:47:00,
2013-06-11 20:52:00,68.7,43.5,29.21,ESE,109,0.0,0.0,40,0.00,,SKC,0.20,VWS V14.01,2013-06-12 00:52:00,
2013-06-11 20:57:00,68.7,43.5,29.23,ESE,109,0.0,0.0,40,0.00,,SKC,0.20,VWS V14.01,2013-06-12 00:57:00,
2013-06-11 21:02:00,68.5,43.9,29.23,ESE,109,0.0,0.0,41,0.00,,SKC,0.20,VWS V14.01,2013-06-12 01:02:00,
2013-06-11 21:07:00,68.5,44.6,29.23,ESE,108,0.0,2.2,42,0.00,,SKC,0.20,VWS V14.01,2013-06-12 01:07:00,
2013-06-11 21:12:00,68.4,44.4,29.23,ESE,108,0.0,0.0,42,0.00,,SKC,0.20,VWS V14.01,2013-06-12 01:12:00,
2013-06-11 21:17:00,68.4,43.8,29.23,ESE,104,0.0,3.1,41,0.00,,SKC,0.20,VWS V14.01,2013-06-12 01:17:00,
2013-06-11 21:22:00,68.2,41.6,29.23,ESE,117,0.0,0.0,38,0.00,,SKC,0.20,VWS V14.01,2013-06-12 01:22:00,
2013-06-11 21:27:00,68.2,42.3,29.23,ESE,117,0.0,0.0,39,0.00,,SKC,0.20,VWS V14.01,2013-06-12 01:27:00,
2013-06-11 21:32:00,68.0,41.5,29.23,ESE,118,0.0,3.1,38,0.00,,SKC,0.20,VWS V14.01,2013-06-12 01:32:00,
2013-06-11 21:37:00,68.0,40.8,29.23,ESE,115,4.8,4.8,37,0.00,,SKC,0.20,VWS V14.01,2013-06-12 01:37:00,
2013-06-11 21:42:00,68.0,40.8,29.23,North,357,4.8,4.8,37,0.00,,SKC,0.20,VWS V14.01,2013-06-12 01:42:00,
2013-06-11 21:47:00,68.0,40.8,29.23,North,357,0.0,0.0,37,0.00,,SKC,0.20,VWS V14.01,2013-06-12 01:47:00,
2013-06-11 21:52:00,67.8,39.9,29.23,SE,144,4.0,4.0,36,0.00,,SKC,0.20,VWS V14.01,2013-06-12 01:52:00,
2013-06-11 21:57:00,68.0,38.6,29.26,NE,34,5.6,5.6,34,0.00,,SKC,0.20,VWS V14.01,2013-06-12 01:57:00,
2013-06-11 22:02:00,68.4,39.7,29.26,NNW,327,0.0,3.1,35,0.00,,SKC,0.20,VWS V14.01,2013-06-12 02:02:00,
2013-06-11 22:07:00,68.5,39.1,29.26,NE,45,0.0,0.0,34,0.00,,SKC,0.20,VWS V14.01,2013-06-12 02:07:00,
2013-06-11 22:12:00,68.7,38.5,29.26,NNW,338,4.0,4.9,33,0.00,,SKC,0.20,VWS V14.01,2013-06-12 02:12:00,
2013-06-11 22:17:00,68.7,39.2,29.26,East,97,0.0,0.0,34,0.00,,SKC,0.20,VWS V14.01,2013-06-12 02:17:00,
2013-06-11 22:22:00,68.5,39.1,29.26,East,82,0.0,0.0,34,0.00,,SKC,0.20,VWS V14.01,2013-06-12 02:22:00,
2013-06-11 22:27:00,68.5,39.1,29.26,SW,221,0.0,4.0,34,0.00,,SKC,0.20,VWS V14.01,2013-06-12 02:27:00,
2013-06-11 22:32:00,68.2,38.8,29.26,South,170,0.0,0.0,34,0.00,,SKC,0.20,VWS V14.01,2013-06-12 02:32:00,
2013-06-11 22:37:00,68.0,38.6,29.26,East,98,0.0,0.0,34,0.00,,SKC,0.20,VWS V14.01,2013-06-12 02:37:00,
2013-06-11 22:42:00,68.0,38.6,29.26,East,99,0.0,0.0,34,0.00,,SKC,0.20,VWS V14.01,2013-06-12 02:42:00,
2013-06-11 22:47:00,68.0,38.6,29.26,East,100,4.8,4.8,34,0.00,,SKC,0.20,VWS V14.01,2013-06-12 02:47:00,
2013-06-11 22:52:00,67.8,38.5,29.26,East,100,0.0,0.0,34,0.00,,SKC,0.20,VWS V14.01,2013-06-12 02:52:00,
2013-06-11 22:57:00,67.8,38.5,29.26,East,100,0.0,0.0,34,0.00,,SKC,0.20,VWS V14.01,2013-06-12 02:57:00,
2013-06-11 23:02:00,67.5,38.1,29.26,East,100,0.0,0.0,34,0.00,,SKC,0.20,VWS V14.01,2013-06-12 03:02:00,
2013-06-11 23:07:00,67.5,38.1,29.26,NE,56,4.0,4.0,34,0.00,,SKC,0.20,VWS V14.01,2013-06-12 03:07:00,
2013-06-11 23:12:00,67.5,38.1,29.26,ENE,59,5.6,5.6,34,0.00,,SKC,0.20,VWS V14.01,2013-06-12 03:12:00,
2013-06-11 23:17:00,67.3,38.0,29.26,ENE,59,0.0,0.0,34,0.00,,SKC,0.20,VWS V14.01,2013-06-12 03:17:00,
2013-06-11 23:22:00,67.3,38.0,29.26,ENE,62,0.0,0.0,34,0.00,,SKC,0.20,VWS V14.01,2013-06-12 03:22:00,
2013-06-11 23:27:00,67.3,38.0,29.26,East,96,0.0,0.0,34,0.00,,SKC,0.20,VWS V14.01,2013-06-12 03:27:00,
2013-06-11 23:32:00,67.1,37.8,29.26,NNE,15,0.0,0.0,34,0.00,,SKC,0.20,VWS V14.01,2013-06-12 03:32:00,
2013-06-11 23:37:00,67.1,37.8,29.26,East,101,0.0,0.0,34,0.00,,SKC,0.20,VWS V14.01,2013-06-12 03:37:00,
2013-06-11 23:42:00,66.9,37.7,29.26,East,101,0.0,0.0,34,0.00,,SKC,0.20,VWS V14.01,2013-06-12 03:42:00,
2013-06-11 23:47:00,66.7,37.5,29.26,WSW,237,0.0,0.0,34,0.00,,SKC,0.20,VWS V14.01,2013-06-12 03:47:00,
2013-06-11 23:52:00,66.7,37.5,29.26,WSW,237,0.0,0.0,34,0.00,,SKC,0.20,VWS V14.01,2013-06-12 03:52:00,
2013-06-11 23:57:00,66.7,37.5,29.26,East,87,0.0,0.0,34,0.00,,SKC,0.20,VWS V14.01,2013-06-12 03:57:00,